TDPD

Melville Hall Airport

Marigot, Dominica
TAF TDPD 161700Z 1618/1718 12010KT 9999 SCT022 TEMPO 1700/1714 SHRA BKN015 SCT034
Issued Valid From Valid To
Nov-16 @ 17:00 UTC
(16 hours ago)
Nov-16 @ 18:00 UTC
(15 hours ago)
Nov-17 @ 18:00 UTC
(in 9 hours)
Nov-16 @ 18:00 to Nov-17 @ 18:00
TAF TDPD 161700Z 1618/1718 12010KT 9999 SCT022
Wind Visibility Clouds
120° at 10 knots 10,000+ meters
  • Scattered at 2,200' AGL
Temporary Nov-17 @ 00:00 to Nov-17 @ 14:00
TEMPO 1700/1714 SHRA BKN015 SCT034
Clouds Conditions
  • Broken at 1,500' AGL
  • Scattered at 3,400' AGL
  • Rain
TAF TDPD 161700Z 1618/1718 12010KT 9999 SCT022 TEMPO 1700/1714 SHRA BKN015 SCT034
Issued Nov-16 @ 17:00 UTC
(16 hours ago)
Valid From Nov-16 @ 18:00 UTC
(15 hours ago)
Valid To Nov-17 @ 18:00 UTC
(in 9 hours)
Nov-16 @ 18:00 - Nov-17 @ 18:00
Wind Visibility
120° at 10 knots 10,000+ meters
Clouds
  • Scattered at 2,200' AGL
Temporary Nov-17 @ 00:00 - Nov-17 @ 14:00
Clouds
  • Broken at 1,500' AGL
  • Scattered at 3,400' AGL
Conditions
  • Rain